KAGC/AGC METAR and TAF weather

Enter ICAO airport designator
Station Type Date Time Source
KAGC METAR 2022/08/12 13:53 UTC NOAA

KAGC 121353Z VRB03KT 10SM CLR 19/13 A3016 RMK AO2 SLP211 T01940133


Station Type Date Time Source
KAGC Decoded METAR 2022/08/12 13:53 UTC NOAA

PITTSBURGH ALLEGHENY CTY., PA, United States (KAGC) 40-21N 079-55W 389M
Aug 12, 2022 - 09:53 AM EDT / 2022.08.12 1353 UTC
Wind: Variable at 3 MPH (3 KT):0
Visibility: 10 mile(s):0
Sky conditions: clear
Temperature: 66.9 F (19.4 C)
Dew Point: 55.9 F (13.3 C)
Relative Humidity: 67%
Pressure (altimeter): 30.16 in. Hg (1021 hPa)
ob: KAGC 121353Z VRB03KT 10SM CLR 19/13 A3016 RMK AO2 SLP211 T01940133
cycle: 14

Station Type Date Time Source
KAGC TAF 2022/08/12 12:33 UTC NOAA

TAF KAGC 121131Z 1212/1312 35003KT P6SM SKC
FM121800 35007KT P6SM SKC
FM130900 05002KT P6SM SCT250

Example: see airport list